Time;durP1;ratioP1;P1;durP2;ratioP2;P2;SDS_P1;SDS_P2;PMS_P1;PMS_P2;Temp;Humidity;BMP_temperature;BMP_pressure;BME280_temperature;BME280_humidity;BME280_pressure;Samples;Min_cycle;Max_cycle;Signal;HPM_P1;HPM_P2
2022/12/11 00:00:40;;;;;;;19.52;9.75;;;0.70;86.00;;;;;;5116210;27;20059;-61
2022/12/11 00:03:07;;;;;;;17.42;9.70;;;0.60;86.10;;;;;;5112509;27;20058;-61
2022/12/11 00:05:41;;;;;;;17.13;10.05;;;0.60;86.20;;;;;;5137557;27;20114;-64
2022/12/11 00:08:08;;;;;;;19.10;9.88;;;0.60;86.30;;;;;;5137842;27;20046;-64
2022/12/11 00:10:35;;;;;;;22.23;10.45;;;0.50;86.40;;;;;;5138164;27;20058;-60
2022/12/11 00:13:03;;;;;;;17.77;10.13;;;0.60;86.30;;;;;;5138143;27;20489;-60
2022/12/11 00:15:31;;;;;;;19.70;10.23;;;0.60;86.30;;;;;;5131343;27;20054;-65
2022/12/11 00:17:58;;;;;;;18.60;9.60;;;0.50;86.10;;;;;;5138741;27;20459;-65
2022/12/11 00:20:26;;;;;;;21.05;10.57;;;0.50;86.00;;;;;;5137330;27;20045;-70
2022/12/11 00:22:54;;;;;;;17.17;10.00;;;0.50;86.10;;;;;;5136285;27;20097;-70
2022/12/11 00:25:21;;;;;;;17.17;10.05;;;0.50;86.10;;;;;;5139207;27;20042;-59
2022/12/11 00:27:48;;;;;;;20.75;10.32;;;0.40;85.90;;;;;;5139740;27;20043;-58
2022/12/11 00:30:15;;;;;;;16.80;9.63;;;0.40;86.10;;;;;;5143711;27;20536;-60
2022/12/11 00:32:43;;;;;;;18.25;9.75;;;0.30;86.20;;;;;;5141688;27;20039;-59
2022/12/11 00:35:10;;;;;;;22.50;11.38;;;0.40;86.10;;;;;;5143349;27;20504;-59
2022/12/11 00:37:37;;;;;;;22.67;11.52;;;0.50;85.90;;;;;;5143309;27;20497;-59
2022/12/11 00:40:06;;;;;;;20.40;9.95;;;0.40;86.20;;;;;;5141291;27;20134;-59
2022/12/11 00:42:33;;;;;;;19.27;9.90;;;0.40;86.20;;;;;;5140694;27;20046;-58
2022/12/11 00:45:00;;;;;;;18.13;10.38;;;0.40;86.10;;;;;;5139790;27;20485;-58
2022/12/11 00:47:27;;;;;;;21.33;10.15;;;0.40;86.00;;;;;;5139214;27;20086;-59
2022/12/11 00:49:54;;;;;;;21.67;10.50;;;0.40;85.90;;;;;;5141707;27;20039;-62
2022/12/11 00:52:23;;;;;;;18.80;9.85;;;0.40;86.10;;;;;;5140537;27;20504;-58
2022/12/11 00:54:50;;;;;;;20.30;10.10;;;0.30;86.20;;;;;;5139727;27;20111;-58
2022/12/11 00:57:18;;;;;;;17.63;10.20;;;0.30;86.10;;;;;;5137800;27;20498;-62
2022/12/11 00:59:45;;;;;;;20.58;10.43;;;0.30;86.20;;;;;;5131506;27;20307;-62
2022/12/11 01:02:12;;;;;;;18.85;9.57;;;0.40;86.00;;;;;;5136255;27;20429;-61
2022/12/11 01:04:39;;;;;;;20.42;11.00;;;0.40;85.90;;;;;;5130117;27;20053;-61
2022/12/11 01:07:06;;;;;;;18.25;9.15;;;0.40;85.70;;;;;;5118899;27;20049;-60
2022/12/11 01:12:21;;;;;;;19.17;10.40;;;0.30;85.60;;;;;;5135796;27;20127;-62
2022/12/11 01:14:48;;;;;;;17.38;9.60;;;0.30;85.60;;;;;;5125176;27;20466;-61
2022/12/11 01:17:15;;;;;;;20.77;10.27;;;0.30;85.50;;;;;;5133792;27;20043;-60
2022/12/11 01:19:42;;;;;;;19.35;10.18;;;0.30;85.60;;;;;;5132272;27;20065;-61
2022/12/11 01:22:08;;;;;;;18.77;9.95;;;0.30;85.40;;;;;;5137717;27;20037;-60
2022/12/11 01:24:36;;;;;;;20.80;10.20;;;0.20;85.40;;;;;;5139765;27;20070;-60
2022/12/11 01:27:04;;;;;;;22.23;10.63;;;0.20;85.40;;;;;;5141508;27;20130;-70
2022/12/11 01:29:32;;;;;;;21.08;9.93;;;0.20;85.50;;;;;;5132509;27;20042;-70
2022/12/11 01:31:59;;;;;;;22.73;10.90;;;0.20;85.50;;;;;;5137043;27;20129;-72
2022/12/11 01:34:29;;;;;;;19.38;9.63;;;0.30;85.20;;;;;;5142608;27;20047;-71
2022/12/11 01:36:56;;;;;;;17.88;9.75;;;0.30;85.30;;;;;;5137499;27;20413;-70
2022/12/11 01:39:23;;;;;;;18.40;9.90;;;0.20;85.20;;;;;;5138936;27;20057;-71
2022/12/11 01:41:50;;;;;;;21.30;10.40;;;0.30;85.40;;;;;;5138167;27;20043;-71
2022/12/11 01:44:53;;;;;;;19.33;9.57;;;0.20;85.50;;;;;;5140599;27;20046;-72
2022/12/11 01:47:21;;;;;;;18.02;9.88;;;0.20;85.60;;;;;;5113989;27;20059;-71
2022/12/11 01:49:48;;;;;;;21.95;10.77;;;0.20;85.50;;;;;;5134054;27;20471;-71
2022/12/11 01:52:19;;;;;;;20.13;10.45;;;0.10;85.60;;;;;;5137532;27;20516;-72
2022/12/11 01:54:46;;;;;;;;;;;0.20;85.90;;;;;;5135964;27;20040;-70
2022/12/11 01:57:16;;;;;;;21.27;10.23;;;0.20;85.70;;;;;;5138677;27;19923;-71
2022/12/11 01:59:46;;;;;;;18.70;10.32;;;0.20;85.50;;;;;;5136222;27;20050;-71
2022/12/11 02:02:18;;;;;;;24.37;10.60;;;0.20;85.60;;;;;;5134284;27;20035;-72
2022/12/11 02:04:48;;;;;;;21.15;10.60;;;0.30;85.50;;;;;;5136774;27;20846;-71
2022/12/11 02:07:15;;;;;;;19.77;10.60;;;0.20;85.30;;;;;;5130135;27;20694;-72
2022/12/11 02:09:46;;;;;;;22.25;11.43;;;0.20;85.70;;;;;;5136121;27;20038;-70
2022/12/11 02:12:20;;;;;;;22.13;10.32;;;0.20;85.60;;;;;;5136728;27;20046;-71
2022/12/11 02:14:56;;;;;;;19.58;9.55;;;0.20;85.40;;;;;;5133409;27;20043;-71
2022/12/11 02:17:29;;;;;;;21.25;11.40;;;0.10;85.60;;;;;;5128627;27;20142;-71
2022/12/11 02:20:07;;;;;;;20.85;10.27;;;0.10;85.70;;;;;;5139246;27;20094;-70
2022/12/11 02:22:53;;;;;;;17.33;9.73;;;0.20;85.50;;;;;;5133490;27;20602;-70
2022/12/11 02:25:25;;;;;;;16.52;10.40;;;0.20;85.50;;;;;;5135234;27;20046;-69
2022/12/11 02:27:59;;;;;;;19.90;9.98;;;0.20;85.50;;;;;;5134298;27;20039;-71
2022/12/11 02:30:28;;;;;;;20.25;10.13;;;0.20;85.40;;;;;;5135428;27;20071;-72
2022/12/11 02:32:56;;;;;;;20.60;10.52;;;0.10;85.60;;;;;;5130425;27;20039;-72
2022/12/11 02:35:30;;;;;;;24.15;11.38;;;0.10;85.60;;;;;;5134280;27;20051;-63
2022/12/11 02:37:59;;;;;;;19.73;10.70;;;0.20;85.50;;;;;;5134971;27;20041;-61
2022/12/11 02:40:31;;;;;;;21.67;10.43;;;0.20;85.50;;;;;;5132307;27;20058;-60
2022/12/11 02:43:01;;;;;;;19.13;9.85;;;0.10;85.50;;;;;;5129063;27;20066;-60
2022/12/11 02:45:30;;;;;;;18.23;9.63;;;0.10;85.50;;;;;;5130552;27;20056;-61
2022/12/11 02:48:01;;;;;;;22.23;9.95;;;0.10;85.30;;;;;;5136344;27;20472;-60
2022/12/11 02:50:29;;;;;;;18.17;9.25;;;0.10;85.40;;;;;;5131486;27;20607;-61
2022/12/11 02:52:57;;;;;;;21.50;9.82;;;0.10;85.40;;;;;;5137500;27;20043;-62
2022/12/11 02:55:28;;;;;;;21.85;10.90;;;0.10;85.40;;;;;;5130991;27;20035;-61
2022/12/11 02:58:02;;;;;;;17.95;9.70;;;0.10;85.40;;;;;;5128340;27;20781;-61
2022/12/11 03:00:30;;;;;;;19.95;10.55;;;0.10;85.60;;;;;;5122317;27;20049;-62
2022/12/11 03:02:58;;;;;;;20.75;11.60;;;0.00;85.70;;;;;;5135049;27;20042;-62
2022/12/11 03:05:26;;;;;;;23.73;11.65;;;0.10;85.60;;;;;;5132189;27;20035;-60
2022/12/11 03:07:53;;;;;;;19.08;9.88;;;0.10;85.50;;;;;;5133512;27;20039;-62
2022/12/11 03:10:20;;;;;;;20.30;10.90;;;0.10;85.50;;;;;;5135349;27;20051;-61
2022/12/11 03:12:50;;;;;;;20.30;10.15;;;0.10;85.50;;;;;;5135824;27;20054;-62
2022/12/11 03:15:21;;;;;;;18.95;9.93;;;0.10;85.50;;;;;;5135910;27;20553;-62
2022/12/11 03:17:59;;;;;;;21.80;10.77;;;0.10;85.60;;;;;;5137247;27;20042;-61
2022/12/11 03:20:34;;;;;;;20.77;10.65;;;0.00;85.70;;;;;;5133408;27;20154;-65
2022/12/11 03:23:09;;;;;;;22.98;11.05;;;0.00;85.60;;;;;;5138775;27;20454;-63
2022/12/11 03:25:43;;;;;;;20.42;10.75;;;0.00;85.50;;;;;;5134384;27;20039;-64
2022/12/11 03:28:13;;;;;;;22.35;10.65;;;0.00;85.80;;;;;;5137464;27;20047;-65
2022/12/11 03:30:42;;;;;;;20.50;11.15;;;0.00;85.60;;;;;;5135101;27;20050;-63
2022/12/11 03:33:15;;;;;;;21.38;10.77;;;0.10;85.50;;;;;;5134887;27;20063;-65
2022/12/11 03:35:45;;;;;;;20.77;11.05;;;0.00;85.60;;;;;;5139851;27;20035;-60
2022/12/11 03:38:18;;;;;;;20.70;10.80;;;0.00;85.70;;;;;;5135757;27;20058;-60
2022/12/11 03:40:48;;;;;;;21.90;10.57;;;0.00;85.70;;;;;;5137360;27;20047;-60
2022/12/11 03:43:17;;;;;;;20.05;11.43;;;0.00;85.60;;;;;;5132822;27;20051;-59
2022/12/11 03:45:47;;;;;;;19.05;10.20;;;0.00;85.30;;;;;;5133834;27;20672;-60
2022/12/11 03:48:18;;;;;;;21.48;10.20;;;0.00;85.50;;;;;;5136209;27;20047;-61
2022/12/11 03:50:46;;;;;;;20.40;10.18;;;0.00;85.70;;;;;;5137079;27;20031;-61
2022/12/11 03:53:14;;;;;;;22.25;10.40;;;0.00;85.70;;;;;;5126767;27;20039;-59
2022/12/11 03:55:42;;;;;;;24.52;11.55;;;0.00;85.60;;;;;;5134216;27;20035;-60
2022/12/11 03:58:10;;;;;;;19.42;10.23;;;0.00;85.50;;;;;;5130383;27;20035;-59
2022/12/11 04:00:38;;;;;;;21.83;11.02;;;-3276.70;85.70;;;;;;5131855;27;20046;-61
2022/12/11 04:03:15;;;;;;;20.73;10.65;;;-3276.70;85.80;;;;;;5132599;27;20047;-61
2022/12/11 04:05:45;;;;;;;20.23;11.05;;;-3276.70;85.80;;;;;;5135793;27;20047;-60
2022/12/11 04:08:13;;;;;;;20.38;10.90;;;-3276.70;85.70;;;;;;5138179;27;20607;-59
2022/12/11 04:10:40;;;;;;;19.67;10.50;;;-3276.70;85.80;;;;;;5135833;27;20100;-59
2022/12/11 04:13:07;;;;;;;21.13;10.20;;;-3276.70;85.80;;;;;;5140493;27;20043;-60
2022/12/11 04:15:33;;;;;;;22.55;10.50;;;-3276.70;85.70;;;;;;5137043;27;20117;-61
2022/12/11 04:26:18;;;;;;;19.50;10.30;;;0.00;85.50;;;;;;5134525;27;20077;-71
2022/12/11 04:28:46;;;;;;;20.10;10.15;;;0.00;85.70;;;;;;5138314;27;20039;-72
2022/12/11 04:31:16;;;;;;;18.20;9.70;;;0.00;85.70;;;;;;5140322;27;20043;-61
2022/12/11 04:33:43;;;;;;;20.08;10.38;;;0.00;85.70;;;;;;5137751;27;20103;-60
2022/12/11 04:36:12;;;;;;;18.17;10.30;;;0.00;85.70;;;;;;5137597;27;20047;-61
2022/12/11 04:38:40;;;;;;;19.58;9.80;;;0.00;85.70;;;;;;5138917;27;20511;-61
2022/12/11 04:41:09;;;;;;;21.55;10.82;;;0.00;85.80;;;;;;5138072;27;20047;-60
2022/12/11 04:43:36;;;;;;;22.52;10.90;;;0.00;85.70;;;;;;5138130;27;20039;-62
2022/12/11 04:46:04;;;;;;;18.98;9.82;;;0.00;85.80;;;;;;5139018;27;20046;-63
2022/12/11 04:48:31;;;;;;;21.20;10.18;;;0.00;85.80;;;;;;5138604;27;20424;-61
2022/12/11 04:50:59;;;;;;;19.27;10.25;;;0.00;85.80;;;;;;5141022;27;20053;-61
2022/12/11 04:53:28;;;;;;;20.77;10.77;;;0.00;85.90;;;;;;5136633;27;20043;-61
2022/12/11 04:55:55;;;;;;;22.90;10.57;;;0.00;86.00;;;;;;5135338;27;20489;-61
2022/12/11 04:58:22;;;;;;;20.95;10.82;;;0.00;86.00;;;;;;5138745;27;20600;-61
2022/12/11 05:00:49;;;;;;;24.83;11.63;;;0.00;86.20;;;;;;5132048;27;20038;-61
2022/12/11 05:03:16;;;;;;;23.52;10.88;;;0.00;86.10;;;;;;5141314;27;20055;-61
2022/12/11 05:05:48;;;;;;;21.73;10.95;;;0.00;86.00;;;;;;5140249;27;20039;-62
2022/12/11 05:08:14;;;;;;;21.17;11.18;;;0.00;85.90;;;;;;5141201;27;20055;-65
2022/12/11 05:10:43;;;;;;;23.50;10.80;;;0.00;85.90;;;;;;5139829;27;20070;-61
2022/12/11 05:13:10;;;;;;;24.98;10.88;;;0.00;86.00;;;;;;5138871;27;20397;-60
2022/12/11 05:15:39;;;;;;;20.48;10.85;;;-3276.70;86.00;;;;;;5139127;27;20429;-63
2022/12/11 05:18:06;;;;;;;23.85;11.25;;;0.00;86.00;;;;;;5141938;27;20106;-62
2022/12/11 05:20:33;;;;;;;24.13;11.15;;;0.00;86.00;;;;;;5140996;27;20043;-66
2022/12/11 05:23:00;;;;;;;22.92;11.32;;;0.00;85.80;;;;;;5139546;27;20055;-63
2022/12/11 05:25:27;;;;;;;21.73;10.95;;;0.00;85.80;;;;;;5142164;27;20525;-63
2022/12/11 05:27:55;;;;;;;22.38;10.63;;;0.00;86.00;;;;;;5139273;27;20042;-65
2022/12/11 05:30:22;;;;;;;21.90;10.25;;;0.00;85.90;;;;;;5138622;27;20046;-63
2022/12/11 05:32:49;;;;;;;25.27;11.55;;;0.00;86.00;;;;;;5138353;27;20065;-63
2022/12/11 05:35:16;;;;;;;20.52;10.45;;;0.00;86.00;;;;;;5135499;27;20509;-62
2022/12/11 05:37:43;;;;;;;20.83;11.00;;;0.00;86.00;;;;;;5138740;27;20035;-64
2022/12/11 05:40:11;;;;;;;23.48;11.73;;;0.00;86.00;;;;;;5136560;27;20054;-64
2022/12/11 05:42:38;;;;;;;20.95;10.98;;;0.00;86.00;;;;;;5136184;27;20042;-64
2022/12/11 05:45:07;;;;;;;22.60;11.43;;;0.00;86.10;;;;;;5135123;27;20650;-62
2022/12/11 05:47:34;;;;;;;22.60;11.90;;;0.00;86.10;;;;;;5133548;27;20031;-65
2022/12/11 05:50:02;;;;;;;22.63;10.85;;;0.00;86.00;;;;;;5139622;27;20511;-64
2022/12/11 05:52:28;;;;;;;23.52;12.23;;;0.00;86.10;;;;;;5115986;27;20122;-62
2022/12/11 05:54:56;;;;;;;26.73;12.35;;;0.00;86.20;;;;;;5133536;27;20099;-65
2022/12/11 05:57:23;;;;;;;21.50;12.00;;;0.00;86.20;;;;;;5137892;27;20046;-60
2022/12/11 05:59:50;;;;;;;25.50;11.95;;;0.00;86.20;;;;;;5136657;27;20047;-58
2022/12/11 06:02:18;;;;;;;21.90;10.77;;;0.00;86.30;;;;;;5136133;27;20050;-59
2022/12/11 06:04:45;;;;;;;21.52;11.15;;;0.00;86.20;;;;;;5136352;27;20043;-59
2022/12/11 06:07:13;;;;;;;21.90;11.13;;;0.00;86.20;;;;;;5136973;27;20039;-60
2022/12/11 06:09:40;;;;;;;22.25;11.30;;;0.00;86.30;;;;;;5133228;27;20050;-60
2022/12/11 06:12:07;;;;;;;23.35;11.85;;;0.00;86.20;;;;;;5135492;27;20134;-60
2022/12/11 06:14:34;;;;;;;21.75;11.07;;;0.00;86.20;;;;;;5134595;27;20042;-60
2022/12/11 06:17:01;;;;;;;24.42;11.70;;;0.00;86.10;;;;;;5134075;27;20034;-59
2022/12/11 06:19:29;;;;;;;23.88;11.70;;;0.00;86.10;;;;;;5133198;27;20204;-59
2022/12/11 06:21:56;;;;;;;20.83;11.25;;;0.00;86.20;;;;;;5135514;27;20109;-60
2022/12/11 06:24:23;;;;;;;19.98;11.23;;;0.00;86.10;;;;;;5138566;27;20066;-59
2022/12/11 06:26:50;;;;;;;23.58;11.10;;;0.00;86.10;;;;;;5137587;27;20053;-61
2022/12/11 06:29:17;;;;;;;22.90;11.48;;;0.00;86.00;;;;;;5133247;27;20039;-60
2022/12/11 06:31:44;;;;;;;24.25;11.27;;;0.00;86.00;;;;;;5136742;27;20050;-60
2022/12/11 06:34:12;;;;;;;23.50;11.98;;;0.00;86.20;;;;;;5140217;27;20046;-58
2022/12/11 06:36:40;;;;;;;23.27;11.45;;;0.00;86.10;;;;;;5134355;27;20425;-60
2022/12/11 06:39:08;;;;;;;20.58;10.75;;;0.00;86.20;;;;;;5138306;27;20035;-60
2022/12/11 06:41:35;;;;;;;23.45;11.77;;;0.00;86.30;;;;;;5119912;27;20480;-59
2022/12/11 06:44:01;;;;;;;26.67;12.20;;;0.00;86.30;;;;;;5138104;27;20096;-60
2022/12/11 06:46:28;;;;;;;26.30;12.50;;;0.00;86.40;;;;;;5138346;27;20046;-60
2022/12/11 06:48:55;;;;;;;25.20;12.50;;;0.00;86.60;;;;;;5140346;27;20070;-60
2022/12/11 06:51:23;;;;;;;24.05;12.93;;;0.00;86.50;;;;;;5132342;27;20052;-58
2022/12/11 06:53:56;;;;;;;23.27;11.90;;;0.00;86.40;;;;;;5135752;27;20067;-60
2022/12/11 06:56:24;;;;;;;25.17;11.90;;;0.00;86.30;;;;;;5138256;27;20043;-72
2022/12/11 06:58:51;;;;;;;22.40;11.05;;;0.00;86.50;;;;;;5138391;27;20051;-71
2022/12/11 07:01:20;;;;;;;25.60;12.30;;;0.00;86.60;;;;;;5135097;27;20039;-72
2022/12/11 07:03:47;;;;;;;21.98;11.50;;;0.00;86.70;;;;;;5136008;27;20137;-71
2022/12/11 07:06:15;;;;;;;23.35;12.23;;;0.00;86.70;;;;;;5137123;27;20046;-70
2022/12/11 07:08:42;;;;;;;25.50;12.13;;;0.00;86.60;;;;;;5140325;27;20063;-71
2022/12/11 07:11:13;;;;;;;21.77;11.48;;;0.00;86.70;;;;;;5136385;27;20088;-71
2022/12/11 07:13:40;;;;;;;25.10;11.93;;;0.00;86.70;;;;;;5137269;27;20049;-70
2022/12/11 07:16:09;;;;;;;24.13;12.30;;;0.00;86.70;;;;;;5138643;27;20043;-71
2022/12/11 07:18:37;;;;;;;23.98;11.70;;;0.00;86.60;;;;;;5138502;27;20035;-71
2022/12/11 07:21:04;;;;;;;22.00;11.45;;;0.00;86.60;;;;;;5136467;27;20054;-71
2022/12/11 07:23:31;;;;;;;25.08;12.10;;;0.00;86.70;;;;;;5128381;27;21142;-72
2022/12/11 07:25:58;;;;;;;25.42;11.85;;;0.00;86.70;;;;;;5135128;27;20054;-71
2022/12/11 07:28:27;;;;;;;21.75;11.93;;;0.00;86.60;;;;;;5131512;27;20106;-72
2022/12/11 07:30:53;;;;;;;26.20;11.95;;;0.00;86.60;;;;;;5131007;27;20495;-72
2022/12/11 07:33:20;;;;;;;24.15;11.32;;;0.00;86.60;;;;;;5133907;27;20050;-72
2022/12/11 07:35:47;;;;;;;25.05;11.90;;;0.00;86.50;;;;;;5133861;27;20055;-73
2022/12/11 07:38:14;;;;;;;24.23;11.38;;;0.00;86.40;;;;;;5141745;27;20043;-70
2022/12/11 07:40:41;;;;;;;26.50;12.40;;;0.10;86.30;;;;;;5136050;27;20129;-71
2022/12/11 07:43:08;;;;;;;25.20;12.13;;;0.00;86.20;;;;;;5144168;27;20047;-72
2022/12/11 07:45:36;;;;;;;28.30;12.50;;;0.10;86.10;;;;;;5136615;27;20043;-73
2022/12/11 07:48:03;;;;;;;22.30;10.95;;;0.10;86.20;;;;;;5138408;27;20035;-71
2022/12/11 07:50:30;;;;;;;20.75;11.02;;;0.10;86.10;;;;;;5138825;27;20038;-71
2022/12/11 07:52:57;;;;;;;24.67;12.18;;;0.10;86.10;;;;;;5140869;27;20049;-70
2022/12/11 07:55:24;;;;;;;24.10;11.32;;;0.20;86.10;;;;;;5135750;27;20050;-71
2022/12/11 07:57:51;;;;;;;23.05;11.20;;;0.20;86.10;;;;;;5140788;27;20050;-73
2022/12/11 08:00:18;;;;;;;23.98;11.57;;;0.20;86.00;;;;;;5137223;27;20038;-70
2022/12/11 08:02:47;;;;;;;28.65;12.73;;;0.20;86.10;;;;;;5136913;27;20068;-72
2022/12/11 08:05:14;;;;;;;23.08;11.80;;;0.10;86.20;;;;;;5134860;27;20058;-71
2022/12/11 08:07:41;;;;;;;25.85;12.40;;;0.20;86.30;;;;;;5141488;27;20035;-71
2022/12/11 08:10:09;;;;;;;24.48;12.52;;;0.10;86.20;;;;;;5136640;27;20070;-73
2022/12/11 08:12:35;;;;;;;25.40;12.55;;;0.10;86.10;;;;;;5142953;27;20074;-72
2022/12/11 08:15:03;;;;;;;23.95;12.32;;;0.10;86.10;;;;;;5139353;27;20046;-71
2022/12/11 08:17:30;;;;;;;24.27;12.45;;;0.10;86.20;;;;;;5140023;27;20117;-72
2022/12/11 08:19:58;;;;;;;26.67;12.45;;;0.20;86.10;;;;;;5139582;27;20090;-72
2022/12/11 08:22:25;;;;;;;25.77;12.40;;;0.20;86.10;;;;;;5143235;27;20042;-60
2022/12/11 08:24:52;;;;;;;27.85;13.48;;;0.20;86.20;;;;;;5139517;27;20043;-59
2022/12/11 08:27:19;;;;;;;26.75;13.23;;;0.20;86.10;;;;;;5142397;27;20095;-64
2022/12/11 08:29:46;;;;;;;25.77;13.30;;;0.20;86.00;;;;;;5137056;27;20424;-65
2022/12/11 08:32:15;;;;;;;24.95;12.95;;;0.20;86.10;;;;;;5133397;27;20038;-64
2022/12/11 08:34:43;;;;;;;25.27;12.82;;;0.20;86.10;;;;;;5138682;27;20546;-65
2022/12/11 08:37:12;;;;;;;26.83;13.10;;;0.30;86.00;;;;;;5140043;27;20477;-72
2022/12/11 08:39:39;;;;;;;24.15;12.85;;;0.30;85.90;;;;;;5136742;27;20038;-72
2022/12/11 08:42:07;;;;;;;27.60;12.70;;;0.20;85.80;;;;;;5137171;27;20078;-70
2022/12/11 08:44:35;;;;;;;28.58;14.27;;;0.30;85.80;;;;;;5132321;27;20043;-71
2022/12/11 08:47:02;;;;;;;27.42;12.85;;;0.30;85.80;;;;;;5135205;27;20489;-61
2022/12/11 08:49:29;;;;;;;27.83;12.93;;;0.30;85.80;;;;;;5134852;27;20039;-60
2022/12/11 08:51:56;;;;;;;25.13;13.45;;;0.30;85.80;;;;;;5138735;27;20039;-70
2022/12/11 08:54:24;;;;;;;25.17;13.52;;;0.30;85.80;;;;;;5140003;27;20546;-71
2022/12/11 08:56:56;;;;;;;24.92;12.52;;;0.30;85.80;;;;;;5142488;27;20071;-71
2022/12/11 08:59:24;;;;;;;26.13;12.77;;;0.30;85.70;;;;;;5138527;27;20031;-72
2022/12/11 09:01:51;;;;;;;24.00;12.50;;;0.30;85.60;;;;;;5139829;27;20053;-62
2022/12/11 09:04:18;;;;;;;27.58;13.32;;;0.40;85.70;;;;;;5136611;27;20564;-60
2022/12/11 09:06:45;;;;;;;22.90;12.43;;;0.40;85.60;;;;;;5139976;27;20496;-72
2022/12/11 09:09:12;;;;;;;25.63;13.38;;;0.40;85.40;;;;;;5139961;27;20042;-70
2022/12/11 09:11:41;;;;;;;26.33;11.93;;;0.40;85.60;;;;;;5140449;27;20074;-65
2022/12/11 09:14:08;;;;;;;23.42;12.45;;;0.40;85.50;;;;;;5137686;27;20054;-64
2022/12/11 09:16:38;;;;;;;22.17;12.20;;;0.40;85.40;;;;;;5137820;27;20104;-65
2022/12/11 09:19:07;;;;;;;24.42;12.27;;;0.40;85.30;;;;;;5136450;27;20042;-64
2022/12/11 09:21:34;;;;;;;22.50;11.95;;;0.40;85.40;;;;;;5136988;27;20478;-64
2022/12/11 09:24:05;;;;;;;22.05;11.07;;;0.40;85.40;;;;;;5137419;27;20068;-63
2022/12/11 09:26:33;;;;;;;24.58;11.60;;;0.40;85.40;;;;;;5137690;27;20511;-63
2022/12/11 09:29:03;;;;;;;23.42;11.98;;;0.50;85.50;;;;;;5135677;27;20043;-66
2022/12/11 09:31:32;;;;;;;22.20;11.70;;;0.50;85.40;;;;;;5126938;27;20035;-63
2022/12/11 09:34:01;;;;;;;23.95;11.65;;;0.50;85.40;;;;;;5132244;27;20039;-66
2022/12/11 09:36:28;;;;;;;21.75;10.85;;;0.60;85.40;;;;;;5137521;27;20051;-65
2022/12/11 09:38:55;;;;;;;24.23;11.55;;;0.70;85.30;;;;;;5139055;27;20043;-66
2022/12/11 09:41:49;;;;;;;20.50;9.85;;;0.70;85.00;;;;;;5136807;27;20066;-65
2022/12/11 09:44:37;;;;;;;18.75;9.85;;;0.70;84.90;;;;;;5136116;27;20054;-63
2022/12/11 09:47:21;;;;;;;21.42;10.25;;;0.70;84.90;;;;;;5136819;27;20405;-63
2022/12/11 09:49:54;;;;;;;18.55;9.80;;;0.70;84.90;;;;;;5136499;27;20259;-65
2022/12/11 09:52:28;;;;;;;18.65;9.13;;;0.70;84.70;;;;;;5124828;27;20054;-64
2022/12/11 09:54:59;;;;;;;16.95;8.90;;;0.70;84.60;;;;;;5140217;27;20154;-64
2022/12/11 09:57:37;;;;;;;19.48;9.32;;;0.70;84.70;;;;;;5136434;27;20053;-63
2022/12/11 10:00:15;;;;;;;20.45;9.93;;;0.70;84.40;;;;;;5139116;27;20126;-65
2022/12/11 10:03:11;;;;;;;17.98;9.10;;;0.70;84.30;;;;;;5135410;27;20115;-65
2022/12/11 10:05:45;;;;;;;17.88;8.95;;;0.70;84.30;;;;;;5136507;27;20051;-65
2022/12/11 10:08:17;;;;;;;16.23;8.75;;;0.80;84.20;;;;;;5140311;27;20096;-64
2022/12/11 10:10:54;;;;;;;20.70;10.00;;;0.80;84.00;;;;;;5136573;27;20043;-66
2022/12/11 10:13:29;;;;;;;17.80;8.80;;;0.80;83.80;;;;;;5135525;27;20046;-66
2022/12/11 10:16:04;;;;;;;18.80;9.07;;;0.80;83.90;;;;;;5134468;27;20049;-65
2022/12/11 10:18:32;;;;;;;15.30;7.82;;;0.80;83.70;;;;;;5137120;27;20080;-68
2022/12/11 10:21:02;;;;;;;13.43;7.47;;;0.80;83.60;;;;;;5139046;27;20099;-65
2022/12/11 10:23:34;;;;;;;13.82;7.78;;;0.80;83.40;;;;;;5136970;27;20250;-66
2022/12/11 10:26:06;;;;;;;15.45;7.55;;;0.80;83.40;;;;;;5136637;27;20038;-65
2022/12/11 10:28:35;;;;;;;16.58;8.23;;;0.90;83.20;;;;;;5136030;27;20130;-65
2022/12/11 10:31:10;;;;;;;13.20;7.53;;;0.90;83.30;;;;;;5133543;27;20031;-63
2022/12/11 10:33:45;;;;;;;15.18;7.72;;;0.90;83.30;;;;;;5137558;27;20128;-65
2022/12/11 10:36:17;;;;;;;16.48;7.53;;;1.00;83.10;;;;;;5137428;27;20110;-66
2022/12/11 10:38:46;;;;;;;16.35;8.43;;;1.00;83.10;;;;;;5140179;27;20459;-65
2022/12/11 10:41:17;;;;;;;14.25;7.65;;;1.00;83.40;;;;;;5130117;27;20116;-60
2022/12/11 10:43:44;;;;;;;;;;;1.00;83.30;;;;;;5136179;27;21593;-60
2022/12/11 10:46:17;;;;;;;12.30;7.30;;;0.90;83.20;;;;;;5133777;27;19923;-66
2022/12/11 10:48:49;;;;;;;16.25;7.93;;;1.00;83.30;;;;;;5133117;27;21059;-65
2022/12/11 10:51:16;;;;;;;15.93;7.85;;;1.00;83.10;;;;;;5133627;27;20075;-65
2022/12/11 10:53:44;;;;;;;16.08;7.97;;;1.10;83.30;;;;;;5136993;27;20043;-65
2022/12/11 10:56:11;;;;;;;16.65;7.85;;;1.10;83.10;;;;;;5130429;27;20043;-66
2022/12/11 10:58:48;;;;;;;16.92;8.52;;;1.10;83.20;;;;;;5130597;27;20047;-64
2022/12/11 11:01:21;;;;;;;15.85;7.93;;;1.00;83.10;;;;;;5134853;27;20055;-60
2022/12/11 11:03:58;;;;;;;15.55;7.15;;;1.00;83.10;;;;;;5130225;27;20051;-60
2022/12/11 11:06:26;;;;;;;11.40;7.00;;;1.10;83.20;;;;;;5132417;27;20486;-60
2022/12/11 11:08:54;;;;;;;15.45;7.38;;;1.00;83.30;;;;;;5129763;27;20035;-61
2022/12/11 11:11:26;;;;;;;14.02;7.15;;;1.10;83.00;;;;;;5129616;27;20064;-62
2022/12/11 11:14:04;;;;;;;15.68;7.20;;;1.20;83.00;;;;;;5128284;27;20066;-60
2022/12/11 11:16:36;;;;;;;14.98;7.60;;;1.20;82.90;;;;;;5133407;27;20386;-58
2022/12/11 11:19:04;;;;;;;14.35;7.38;;;1.20;83.10;;;;;;5135600;27;20377;-60
2022/12/11 11:21:32;;;;;;;12.55;6.10;;;1.20;83.00;;;;;;5137358;27;20042;-60
2022/12/11 11:23:59;;;;;;;13.02;7.10;;;1.20;83.10;;;;;;5133115;27;20110;-60
2022/12/11 11:26:26;;;;;;;13.52;6.45;;;1.20;82.90;;;;;;5137001;27;20119;-61
2022/12/11 11:28:55;;;;;;;14.10;6.95;;;1.30;82.80;;;;;;5138111;27;20035;-61
2022/12/11 11:31:33;;;;;;;12.73;6.40;;;1.30;82.70;;;;;;5137468;27;20036;-72
2022/12/11 11:34:02;;;;;;;13.57;6.80;;;1.40;82.60;;;;;;5137429;27;20045;-72
2022/12/11 11:36:31;;;;;;;15.75;7.32;;;1.40;82.60;;;;;;5135952;27;20062;-72
2022/12/11 11:39:13;;;;;;;15.60;7.15;;;1.30;82.70;;;;;;5133619;27;20071;-71
2022/12/11 11:41:46;;;;;;;13.65;7.03;;;1.40;82.70;;;;;;5134540;27;20050;-64
2022/12/11 11:44:18;;;;;;;13.35;7.00;;;1.40;82.40;;;;;;5136390;27;20043;-64
2022/12/11 11:46:53;;;;;;;14.90;7.47;;;1.40;82.70;;;;;;5129600;27;20041;-71
2022/12/11 11:49:28;;;;;;;14.27;6.88;;;1.40;82.40;;;;;;5135423;27;20162;-73
2022/12/11 11:52:00;;;;;;;18.63;6.82;;;1.40;82.70;;;;;;5135879;27;20038;-71
2022/12/11 11:54:34;;;;;;;14.82;6.97;;;1.40;82.70;;;;;;5135583;27;20062;-72
2022/12/11 11:57:12;;;;;;;15.02;7.45;;;1.40;82.80;;;;;;5133245;27;20043;-61
2022/12/11 11:59:46;;;;;;;13.00;7.25;;;1.40;82.90;;;;;;5136661;27;20126;-62
2022/12/11 12:02:16;;;;;;;15.98;7.93;;;1.40;83.10;;;;;;5130151;27;20513;-72
2022/12/11 12:04:45;;;;;;;16.60;7.82;;;1.50;82.80;;;;;;5135586;27;20396;-70
2022/12/11 12:07:27;;;;;;;16.58;8.07;;;1.40;82.90;;;;;;5135135;27;20057;-70
2022/12/11 12:10:03;;;;;;;15.05;7.38;;;1.40;83.00;;;;;;5133796;27;20067;-70
2022/12/11 12:12:38;;;;;;;14.75;7.97;;;1.40;83.00;;;;;;5130775;27;20055;-72
2022/12/11 12:15:19;;;;;;;18.98;8.48;;;1.40;83.00;;;;;;5132776;27;20070;-71
2022/12/11 12:17:53;;;;;;;15.80;8.02;;;1.40;83.00;;;;;;5136016;27;20065;-69
2022/12/11 12:20:32;;;;;;;17.17;8.60;;;1.40;83.00;;;;;;5135275;27;20131;-64
2022/12/11 12:23:22;;;;;;;16.63;9.15;;;1.50;83.10;;;;;;5134001;27;20054;-65
2022/12/11 12:25:54;;;;;;;16.17;8.23;;;1.40;83.00;;;;;;5120563;27;20495;-74
2022/12/11 12:28:32;;;;;;;15.57;7.93;;;1.40;82.80;;;;;;5135830;27;20050;-71
2022/12/11 12:31:13;;;;;;;18.10;8.60;;;1.50;82.80;;;;;;5136773;27;20034;-71
2022/12/11 12:33:53;;;;;;;16.13;8.13;;;1.50;82.90;;;;;;5137038;27;20051;-72
2022/12/11 12:36:30;;;;;;;19.15;9.10;;;1.50;82.70;;;;;;5137467;27;20074;-61
2022/12/11 12:39:02;;;;;;;18.73;9.23;;;1.50;82.60;;;;;;5134001;27;20035;-61
2022/12/11 12:41:42;;;;;;;18.80;8.88;;;1.50;82.70;;;;;;5139489;27;20062;-62
2022/12/11 12:44:15;;;;;;;18.02;8.88;;;1.50;82.70;;;;;;5139176;27;20481;-61
2022/12/11 12:46:57;;;;;;;15.63;8.25;;;1.50;82.80;;;;;;5131968;27;20074;-60
2022/12/11 12:49:40;;;;;;;18.55;8.88;;;1.50;82.40;;;;;;5135549;27;20118;-60
2022/12/11 12:52:13;;;;;;;17.75;8.40;;;1.40;82.70;;;;;;5134843;27;20035;-62
2022/12/11 12:54:42;;;;;;;17.02;8.73;;;1.40;82.40;;;;;;5136763;27;20043;-61
2022/12/11 12:57:09;;;;;;;16.75;8.38;;;1.50;82.60;;;;;;5135382;27;20042;-61
2022/12/11 12:59:36;;;;;;;18.83;9.70;;;1.40;82.70;;;;;;5131079;27;20050;-61
2022/12/11 13:02:05;;;;;;;18.10;8.98;;;1.40;82.60;;;;;;5138895;27;20497;-66
2022/12/11 13:04:42;;;;;;;17.17;8.65;;;1.50;82.50;;;;;;5135777;27;20059;-66